sensor_id;sensor_type;location;lat;lon;timestamp;P1;durP1;ratioP1;P2;durP2;ratioP2
63286;SDS011;49410;55.708;37.522;2022-12-24T00:01:19;14.90;;;7.30;;
63286;SDS011;49410;55.708;37.522;2022-12-24T00:03:44;14.32;;;7.00;;
63286;SDS011;49410;55.708;37.522;2022-12-24T00:06:18;14.15;;;6.47;;
63286;SDS011;49410;55.708;37.522;2022-12-24T00:08:47;15.02;;;7.45;;
63286;SDS011;49410;55.708;37.522;2022-12-24T00:11:13;18.88;;;7.10;;
63286;SDS011;49410;55.708;37.522;2022-12-24T00:13:39;15.38;;;6.70;;
63286;SDS011;49410;55.708;37.522;2022-12-24T00:16:04;16.83;;;7.70;;
63286;SDS011;49410;55.708;37.522;2022-12-24T00:18:30;14.77;;;7.00;;
63286;SDS011;49410;55.708;37.522;2022-12-24T00:20:56;15.05;;;7.60;;
63286;SDS011;49410;55.708;37.522;2022-12-24T00:23:21;14.35;;;6.32;;
63286;SDS011;49410;55.708;37.522;2022-12-24T00:25:47;15.55;;;7.00;;
63286;SDS011;49410;55.708;37.522;2022-12-24T00:28:13;16.27;;;7.80;;
63286;SDS011;49410;55.708;37.522;2022-12-24T00:30:40;16.88;;;8.30;;
63286;SDS011;49410;55.708;37.522;2022-12-24T00:33:06;14.48;;;7.80;;
63286;SDS011;49410;55.708;37.522;2022-12-24T00:35:35;16.52;;;7.15;;
63286;SDS011;49410;55.708;37.522;2022-12-24T00:38:02;15.55;;;7.50;;
63286;SDS011;49410;55.708;37.522;2022-12-24T00:40:28;16.90;;;7.25;;
63286;SDS011;49410;55.708;37.522;2022-12-24T00:42:54;15.18;;;7.50;;
63286;SDS011;49410;55.708;37.522;2022-12-24T00:45:20;15.88;;;8.05;;
63286;SDS011;49410;55.708;37.522;2022-12-24T00:47:46;16.80;;;8.52;;
63286;SDS011;49410;55.708;37.522;2022-12-24T00:50:12;18.38;;;8.02;;
63286;SDS011;49410;55.708;37.522;2022-12-24T00:52:38;17.20;;;7.25;;
63286;SDS011;49410;55.708;37.522;2022-12-24T00:55:04;17.38;;;8.55;;
63286;SDS011;49410;55.708;37.522;2022-12-24T00:57:29;20.65;;;8.38;;
63286;SDS011;49410;55.708;37.522;2022-12-24T00:59:55;20.52;;;7.97;;
63286;SDS011;49410;55.708;37.522;2022-12-24T01:02:20;18.58;;;8.38;;
63286;SDS011;49410;55.708;37.522;2022-12-24T01:04:47;18.17;;;7.82;;
63286;SDS011;49410;55.708;37.522;2022-12-24T01:07:31;19.83;;;9.40;;
63286;SDS011;49410;55.708;37.522;2022-12-24T01:09:56;17.55;;;7.82;;
63286;SDS011;49410;55.708;37.522;2022-12-24T01:12:22;20.40;;;8.52;;
63286;SDS011;49410;55.708;37.522;2022-12-24T01:14:47;16.45;;;7.40;;
63286;SDS011;49410;55.708;37.522;2022-12-24T01:17:13;20.20;;;8.23;;
63286;SDS011;49410;55.708;37.522;2022-12-24T01:19:39;19.77;;;8.77;;
63286;SDS011;49410;55.708;37.522;2022-12-24T01:22:04;20.33;;;8.52;;
63286;SDS011;49410;55.708;37.522;2022-12-24T01:24:29;22.98;;;8.80;;
63286;SDS011;49410;55.708;37.522;2022-12-24T01:26:55;18.95;;;7.85;;
63286;SDS011;49410;55.708;37.522;2022-12-24T01:29:20;20.10;;;7.95;;
63286;SDS011;49410;55.708;37.522;2022-12-24T01:31:46;19.40;;;8.05;;
63286;SDS011;49410;55.708;37.522;2022-12-24T01:34:11;19.95;;;8.02;;
63286;SDS011;49410;55.708;37.522;2022-12-24T01:36:37;18.52;;;7.50;;
63286;SDS011;49410;55.708;37.522;2022-12-24T01:39:03;21.48;;;8.23;;
63286;SDS011;49410;55.708;37.522;2022-12-24T01:41:29;17.83;;;7.95;;
63286;SDS011;49410;55.708;37.522;2022-12-24T01:44:25;19.45;;;8.57;;
63286;SDS011;49410;55.708;37.522;2022-12-24T01:49:31;18.30;;;8.93;;
63286;SDS011;49410;55.708;37.522;2022-12-24T01:51:59;18.45;;;6.68;;
63286;SDS011;49410;55.708;37.522;2022-12-24T01:54:29;18.90;;;8.93;;
63286;SDS011;49410;55.708;37.522;2022-12-24T01:57:18;18.83;;;8.93;;
63286;SDS011;49410;55.708;37.522;2022-12-24T01:59:49;16.30;;;7.72;;
63286;SDS011;49410;55.708;37.522;2022-12-24T02:02:19;19.75;;;8.45;;
63286;SDS011;49410;55.708;37.522;2022-12-24T02:04:49;19.92;;;8.52;;
63286;SDS011;49410;55.708;37.522;2022-12-24T02:07:20;17.83;;;8.27;;
63286;SDS011;49410;55.708;37.522;2022-12-24T02:09:46;21.67;;;8.90;;
63286;SDS011;49410;55.708;37.522;2022-12-24T02:12:17;20.38;;;8.98;;
63286;SDS011;49410;55.708;37.522;2022-12-24T02:14:43;21.38;;;9.15;;
63286;SDS011;49410;55.708;37.522;2022-12-24T02:20:02;19.23;;;8.68;;
63286;SDS011;49410;55.708;37.522;2022-12-24T02:22:40;21.10;;;8.27;;
63286;SDS011;49410;55.708;37.522;2022-12-24T02:30:41;20.85;;;7.95;;
63286;SDS011;49410;55.708;37.522;2022-12-24T02:42:14;18.35;;;7.45;;
63286;SDS011;49410;55.708;37.522;2022-12-24T02:45:01;22.60;;;8.32;;
63286;SDS011;49410;55.708;37.522;2022-12-24T02:47:29;19.40;;;9.10;;
63286;SDS011;49410;55.708;37.522;2022-12-24T02:49:56;20.65;;;9.07;;
63286;SDS011;49410;55.708;37.522;2022-12-24T02:52:31;22.02;;;9.15;;
63286;SDS011;49410;55.708;37.522;2022-12-24T02:55:12;18.80;;;8.05;;
63286;SDS011;49410;55.708;37.522;2022-12-24T02:57:43;22.00;;;8.30;;
63286;SDS011;49410;55.708;37.522;2022-12-24T03:00:24;18.70;;;8.45;;
63286;SDS011;49410;55.708;37.522;2022-12-24T03:05:58;21.20;;;8.18;;
63286;SDS011;49410;55.708;37.522;2022-12-24T03:11:24;24.40;;;9.88;;
63286;SDS011;49410;55.708;37.522;2022-12-24T03:13:50;22.83;;;9.77;;
63286;SDS011;49410;55.708;37.522;2022-12-24T03:16:20;21.60;;;9.52;;
63286;SDS011;49410;55.708;37.522;2022-12-24T03:18:49;24.33;;;9.13;;
63286;SDS011;49410;55.708;37.522;2022-12-24T03:21:19;24.00;;;9.57;;
63286;SDS011;49410;55.708;37.522;2022-12-24T03:23:56;22.35;;;10.00;;
63286;SDS011;49410;55.708;37.522;2022-12-24T03:26:22;20.95;;;8.27;;
63286;SDS011;49410;55.708;37.522;2022-12-24T03:28:49;21.40;;;10.25;;
63286;SDS011;49410;55.708;37.522;2022-12-24T03:31:15;25.67;;;9.75;;
63286;SDS011;49410;55.708;37.522;2022-12-24T03:33:42;25.17;;;10.90;;
63286;SDS011;49410;55.708;37.522;2022-12-24T03:36:08;20.83;;;9.77;;
63286;SDS011;49410;55.708;37.522;2022-12-24T03:38:34;25.75;;;10.80;;
63286;SDS011;49410;55.708;37.522;2022-12-24T03:41:00;22.83;;;10.10;;
63286;SDS011;49410;55.708;37.522;2022-12-24T03:43:26;22.75;;;9.10;;
63286;SDS011;49410;55.708;37.522;2022-12-24T03:45:51;23.15;;;9.05;;
63286;SDS011;49410;55.708;37.522;2022-12-24T03:48:17;21.42;;;8.73;;
63286;SDS011;49410;55.708;37.522;2022-12-24T03:50:42;21.73;;;9.55;;
63286;SDS011;49410;55.708;37.522;2022-12-24T03:53:08;25.83;;;9.05;;
63286;SDS011;49410;55.708;37.522;2022-12-24T03:55:34;18.02;;;8.10;;
63286;SDS011;49410;55.708;37.522;2022-12-24T03:57:59;20.70;;;9.18;;
63286;SDS011;49410;55.708;37.522;2022-12-24T04:00:25;21.15;;;9.65;;
63286;SDS011;49410;55.708;37.522;2022-12-24T04:02:50;22.83;;;8.60;;
63286;SDS011;49410;55.708;37.522;2022-12-24T04:05:17;18.45;;;8.50;;
63286;SDS011;49410;55.708;37.522;2022-12-24T04:07:44;24.38;;;9.77;;
63286;SDS011;49410;55.708;37.522;2022-12-24T04:10:10;21.58;;;9.35;;
63286;SDS011;49410;55.708;37.522;2022-12-24T04:12:37;25.50;;;9.88;;
63286;SDS011;49410;55.708;37.522;2022-12-24T04:15:03;19.02;;;8.57;;
63286;SDS011;49410;55.708;37.522;2022-12-24T04:17:29;23.02;;;8.32;;
63286;SDS011;49410;55.708;37.522;2022-12-24T04:19:54;24.73;;;8.98;;
63286;SDS011;49410;55.708;37.522;2022-12-24T04:22:20;24.00;;;9.07;;
63286;SDS011;49410;55.708;37.522;2022-12-24T04:24:45;22.73;;;8.13;;
63286;SDS011;49410;55.708;37.522;2022-12-24T04:27:15;23.15;;;9.10;;
63286;SDS011;49410;55.708;37.522;2022-12-24T04:29:40;25.52;;;10.07;;
63286;SDS011;49410;55.708;37.522;2022-12-24T04:32:06;24.95;;;9.77;;
63286;SDS011;49410;55.708;37.522;2022-12-24T04:34:31;18.65;;;8.43;;
63286;SDS011;49410;55.708;37.522;2022-12-24T04:36:57;23.83;;;9.23;;
63286;SDS011;49410;55.708;37.522;2022-12-24T04:39:23;22.55;;;9.38;;
63286;SDS011;49410;55.708;37.522;2022-12-24T04:41:48;24.42;;;9.88;;
63286;SDS011;49410;55.708;37.522;2022-12-24T04:44:14;18.73;;;7.85;;
63286;SDS011;49410;55.708;37.522;2022-12-24T04:46:39;20.38;;;8.73;;
63286;SDS011;49410;55.708;37.522;2022-12-24T04:49:06;25.33;;;10.52;;
63286;SDS011;49410;55.708;37.522;2022-12-24T04:51:32;22.75;;;9.18;;
63286;SDS011;49410;55.708;37.522;2022-12-24T04:53:57;23.25;;;9.07;;
63286;SDS011;49410;55.708;37.522;2022-12-24T04:56:24;23.30;;;9.80;;
63286;SDS011;49410;55.708;37.522;2022-12-24T04:58:51;23.02;;;9.48;;
63286;SDS011;49410;55.708;37.522;2022-12-24T05:01:19;22.50;;;9.38;;
63286;SDS011;49410;55.708;37.522;2022-12-24T05:03:47;20.83;;;9.90;;
63286;SDS011;49410;55.708;37.522;2022-12-24T05:06:14;22.48;;;8.95;;
63286;SDS011;49410;55.708;37.522;2022-12-24T05:08:41;22.85;;;9.77;;
63286;SDS011;49410;55.708;37.522;2022-12-24T05:11:07;22.70;;;9.80;;
63286;SDS011;49410;55.708;37.522;2022-12-24T05:13:33;27.25;;;9.77;;
63286;SDS011;49410;55.708;37.522;2022-12-24T05:15:59;22.55;;;8.98;;
63286;SDS011;49410;55.708;37.522;2022-12-24T05:18:25;24.60;;;9.38;;
63286;SDS011;49410;55.708;37.522;2022-12-24T05:20:50;24.52;;;10.27;;
63286;SDS011;49410;55.708;37.522;2022-12-24T05:23:20;24.80;;;8.75;;
63286;SDS011;49410;55.708;37.522;2022-12-24T05:26:17;23.50;;;9.57;;
63286;SDS011;49410;55.708;37.522;2022-12-24T05:28:57;23.83;;;9.93;;
63286;SDS011;49410;55.708;37.522;2022-12-24T05:31:24;26.05;;;10.98;;
63286;SDS011;49410;55.708;37.522;2022-12-24T05:33:51;23.45;;;10.63;;
63286;SDS011;49410;55.708;37.522;2022-12-24T05:36:18;23.30;;;9.70;;
63286;SDS011;49410;55.708;37.522;2022-12-24T05:38:44;24.17;;;9.13;;
63286;SDS011;49410;55.708;37.522;2022-12-24T05:41:10;23.17;;;9.77;;
63286;SDS011;49410;55.708;37.522;2022-12-24T05:43:36;26.38;;;9.50;;
63286;SDS011;49410;55.708;37.522;2022-12-24T05:46:04;24.15;;;9.65;;
63286;SDS011;49410;55.708;37.522;2022-12-24T05:48:33;23.30;;;9.90;;
63286;SDS011;49410;55.708;37.522;2022-12-24T05:51:02;22.58;;;9.30;;
63286;SDS011;49410;55.708;37.522;2022-12-24T05:53:28;23.25;;;9.90;;
63286;SDS011;49410;55.708;37.522;2022-12-24T05:55:54;19.30;;;9.73;;
63286;SDS011;49410;55.708;37.522;2022-12-24T05:58:19;22.70;;;8.35;;
63286;SDS011;49410;55.708;37.522;2022-12-24T06:00:45;20.42;;;8.38;;
63286;SDS011;49410;55.708;37.522;2022-12-24T06:03:10;23.08;;;10.02;;
63286;SDS011;49410;55.708;37.522;2022-12-24T06:05:36;20.95;;;9.30;;
63286;SDS011;49410;55.708;37.522;2022-12-24T06:08:01;19.67;;;7.72;;
63286;SDS011;49410;55.708;37.522;2022-12-24T06:10:27;20.67;;;8.60;;
63286;SDS011;49410;55.708;37.522;2022-12-24T06:12:52;17.95;;;7.28;;
63286;SDS011;49410;55.708;37.522;2022-12-24T06:15:19;26.83;;;8.90;;
63286;SDS011;49410;55.708;37.522;2022-12-24T06:17:44;25.42;;;7.25;;
63286;SDS011;49410;55.708;37.522;2022-12-24T06:20:10;20.92;;;7.88;;
63286;SDS011;49410;55.708;37.522;2022-12-24T06:22:35;21.23;;;9.27;;
63286;SDS011;49410;55.708;37.522;2022-12-24T06:25:01;17.65;;;7.95;;
63286;SDS011;49410;55.708;37.522;2022-12-24T06:27:26;20.77;;;7.78;;
63286;SDS011;49410;55.708;37.522;2022-12-24T06:29:52;20.02;;;8.05;;
63286;SDS011;49410;55.708;37.522;2022-12-24T06:32:18;20.60;;;7.57;;
63286;SDS011;49410;55.708;37.522;2022-12-24T06:34:44;23.95;;;9.32;;
63286;SDS011;49410;55.708;37.522;2022-12-24T06:37:10;22.02;;;9.30;;
63286;SDS011;49410;55.708;37.522;2022-12-24T06:39:42;23.15;;;8.98;;
63286;SDS011;49410;55.708;37.522;2022-12-24T06:42:11;21.58;;;8.85;;
63286;SDS011;49410;55.708;37.522;2022-12-24T06:44:37;21.10;;;7.90;;
63286;SDS011;49410;55.708;37.522;2022-12-24T06:47:02;25.15;;;9.15;;
63286;SDS011;49410;55.708;37.522;2022-12-24T06:49:28;20.23;;;8.82;;
63286;SDS011;49410;55.708;37.522;2022-12-24T06:51:53;21.13;;;7.90;;
63286;SDS011;49410;55.708;37.522;2022-12-24T06:54:19;23.98;;;8.98;;
63286;SDS011;49410;55.708;37.522;2022-12-24T06:56:44;24.80;;;8.43;;
63286;SDS011;49410;55.708;37.522;2022-12-24T06:59:10;22.25;;;9.15;;
63286;SDS011;49410;55.708;37.522;2022-12-24T07:01:35;23.38;;;9.93;;
63286;SDS011;49410;55.708;37.522;2022-12-24T07:04:01;21.55;;;8.30;;
63286;SDS011;49410;55.708;37.522;2022-12-24T07:06:27;20.83;;;7.97;;
63286;SDS011;49410;55.708;37.522;2022-12-24T07:08:54;22.42;;;9.60;;
63286;SDS011;49410;55.708;37.522;2022-12-24T07:11:20;22.13;;;8.35;;
63286;SDS011;49410;55.708;37.522;2022-12-24T07:13:46;20.73;;;8.00;;
63286;SDS011;49410;55.708;37.522;2022-12-24T07:16:12;19.70;;;8.45;;
63286;SDS011;49410;55.708;37.522;2022-12-24T07:18:37;22.35;;;8.52;;
63286;SDS011;49410;55.708;37.522;2022-12-24T07:21:03;21.75;;;8.20;;
63286;SDS011;49410;55.708;37.522;2022-12-24T07:23:29;24.17;;;9.60;;
63286;SDS011;49410;55.708;37.522;2022-12-24T07:25:59;19.27;;;8.77;;
63286;SDS011;49410;55.708;37.522;2022-12-24T07:28:26;25.38;;;9.82;;
63286;SDS011;49410;55.708;37.522;2022-12-24T07:30:52;24.65;;;10.32;;
63286;SDS011;49410;55.708;37.522;2022-12-24T07:33:18;22.95;;;9.75;;
63286;SDS011;49410;55.708;37.522;2022-12-24T07:35:43;20.33;;;8.90;;
63286;SDS011;49410;55.708;37.522;2022-12-24T07:38:09;20.73;;;8.60;;
63286;SDS011;49410;55.708;37.522;2022-12-24T07:40:35;20.83;;;9.35;;
63286;SDS011;49410;55.708;37.522;2022-12-24T07:43:00;26.88;;;8.43;;
63286;SDS011;49410;55.708;37.522;2022-12-24T07:45:25;23.17;;;8.27;;
63286;SDS011;49410;55.708;37.522;2022-12-24T07:47:51;19.38;;;7.72;;
63286;SDS011;49410;55.708;37.522;2022-12-24T07:50:16;22.83;;;8.55;;
63286;SDS011;49410;55.708;37.522;2022-12-24T07:52:42;18.20;;;7.82;;
63286;SDS011;49410;55.708;37.522;2022-12-24T07:55:08;23.35;;;8.68;;
63286;SDS011;49410;55.708;37.522;2022-12-24T07:57:33;22.17;;;6.90;;
63286;SDS011;49410;55.708;37.522;2022-12-24T07:59:59;18.40;;;8.75;;
63286;SDS011;49410;55.708;37.522;2022-12-24T08:02:24;19.60;;;7.75;;
63286;SDS011;49410;55.708;37.522;2022-12-24T08:04:50;22.10;;;8.23;;
63286;SDS011;49410;55.708;37.522;2022-12-24T08:07:15;17.65;;;6.93;;
63286;SDS011;49410;55.708;37.522;2022-12-24T08:09:41;18.95;;;7.70;;
63286;SDS011;49410;55.708;37.522;2022-12-24T08:12:06;17.63;;;8.10;;
63286;SDS011;49410;55.708;37.522;2022-12-24T08:14:32;14.60;;;6.53;;
63286;SDS011;49410;55.708;37.522;2022-12-24T08:16:57;17.05;;;6.82;;
63286;SDS011;49410;55.708;37.522;2022-12-24T08:19:23;17.00;;;6.60;;
63286;SDS011;49410;55.708;37.522;2022-12-24T08:21:48;15.10;;;6.85;;
63286;SDS011;49410;55.708;37.522;2022-12-24T08:24:14;15.65;;;5.90;;
63286;SDS011;49410;55.708;37.522;2022-12-24T08:26:40;12.82;;;6.40;;
63286;SDS011;49410;55.708;37.522;2022-12-24T08:29:06;14.55;;;6.20;;
63286;SDS011;49410;55.708;37.522;2022-12-24T08:31:31;15.30;;;7.38;;
63286;SDS011;49410;55.708;37.522;2022-12-24T08:34:04;16.70;;;7.53;;
63286;SDS011;49410;55.708;37.522;2022-12-24T08:36:31;15.93;;;6.78;;
63286;SDS011;49410;55.708;37.522;2022-12-24T08:38:57;13.23;;;6.47;;
63286;SDS011;49410;55.708;37.522;2022-12-24T08:41:23;13.30;;;5.40;;
63286;SDS011;49410;55.708;37.522;2022-12-24T08:43:49;13.57;;;6.70;;
63286;SDS011;49410;55.708;37.522;2022-12-24T08:46:14;15.57;;;6.10;;
63286;SDS011;49410;55.708;37.522;2022-12-24T08:48:40;11.68;;;5.22;;
63286;SDS011;49410;55.708;37.522;2022-12-24T08:51:06;15.57;;;5.72;;
63286;SDS011;49410;55.708;37.522;2022-12-24T08:53:33;11.73;;;5.47;;
63286;SDS011;49410;55.708;37.522;2022-12-24T08:56:02;11.85;;;5.22;;
63286;SDS011;49410;55.708;37.522;2022-12-24T08:58:29;14.20;;;6.57;;
63286;SDS011;49410;55.708;37.522;2022-12-24T09:00:55;13.93;;;6.00;;
63286;SDS011;49410;55.708;37.522;2022-12-24T09:03:21;11.95;;;5.90;;
63286;SDS011;49410;55.708;37.522;2022-12-24T09:05:46;11.90;;;5.13;;
63286;SDS011;49410;55.708;37.522;2022-12-24T09:08:12;12.00;;;4.88;;
63286;SDS011;49410;55.708;37.522;2022-12-24T09:10:37;10.93;;;5.10;;
63286;SDS011;49410;55.708;37.522;2022-12-24T09:13:03;13.25;;;5.97;;
63286;SDS011;49410;55.708;37.522;2022-12-24T09:15:28;14.02;;;5.32;;
63286;SDS011;49410;55.708;37.522;2022-12-24T09:17:54;13.60;;;5.78;;
63286;SDS011;49410;55.708;37.522;2022-12-24T09:20:19;14.55;;;6.28;;
63286;SDS011;49410;55.708;37.522;2022-12-24T09:22:45;15.60;;;6.50;;
63286;SDS011;49410;55.708;37.522;2022-12-24T09:25:10;14.05;;;6.43;;
63286;SDS011;49410;55.708;37.522;2022-12-24T09:27:36;15.13;;;6.30;;
63286;SDS011;49410;55.708;37.522;2022-12-24T09:30:02;17.02;;;7.10;;
63286;SDS011;49410;55.708;37.522;2022-12-24T09:32:29;14.20;;;6.47;;
63286;SDS011;49410;55.708;37.522;2022-12-24T09:34:54;14.98;;;7.40;;
63286;SDS011;49410;55.708;37.522;2022-12-24T09:37:20;15.13;;;5.60;;
63286;SDS011;49410;55.708;37.522;2022-12-24T09:39:45;12.73;;;5.78;;
63286;SDS011;49410;55.708;37.522;2022-12-24T09:42:20;12.77;;;5.93;;
63286;SDS011;49410;55.708;37.522;2022-12-24T09:45:20;14.20;;;6.18;;
63286;SDS011;49410;55.708;37.522;2022-12-24T09:48:14;18.23;;;6.28;;
63286;SDS011;49410;55.708;37.522;2022-12-24T09:50:45;12.95;;;5.85;;
63286;SDS011;49410;55.708;37.522;2022-12-24T09:53:18;12.93;;;6.63;;
63286;SDS011;49410;55.708;37.522;2022-12-24T09:55:46;13.95;;;5.97;;
63286;SDS011;49410;55.708;37.522;2022-12-24T09:58:29;13.18;;;5.75;;
63286;SDS011;49410;55.708;37.522;2022-12-24T10:03:24;13.90;;;6.30;;
63286;SDS011;49410;55.708;37.522;2022-12-24T10:19:02;13.32;;;6.07;;
63286;SDS011;49410;55.708;37.522;2022-12-24T10:21:46;12.70;;;5.60;;
63286;SDS011;49410;55.708;37.522;2022-12-24T10:24:34;12.75;;;5.95;;
63286;SDS011;49410;55.708;37.522;2022-12-24T10:27:12;12.63;;;5.88;;
63286;SDS011;49410;55.708;37.522;2022-12-24T10:29:41;12.70;;;5.80;;
63286;SDS011;49410;55.708;37.522;2022-12-24T10:32:25;13.57;;;6.10;;
63286;SDS011;49410;55.708;37.522;2022-12-24T10:34:56;15.43;;;5.70;;
63286;SDS011;49410;55.708;37.522;2022-12-24T10:37:32;13.85;;;6.25;;
63286;SDS011;49410;55.708;37.522;2022-12-24T10:39:58;12.50;;;5.07;;
63286;SDS011;49410;55.708;37.522;2022-12-24T10:42:26;11.35;;;5.07;;
63286;SDS011;49410;55.708;37.522;2022-12-24T10:45:07;11.70;;;5.18;;
63286;SDS011;49410;55.708;37.522;2022-12-24T10:47:38;13.93;;;6.47;;
63286;SDS011;49410;55.708;37.522;2022-12-24T10:50:12;10.75;;;4.90;;
63286;SDS011;49410;55.708;37.522;2022-12-24T10:52:43;13.88;;;6.38;;
63286;SDS011;49410;55.708;37.522;2022-12-24T10:57:46;13.32;;;6.30;;
63286;SDS011;49410;55.708;37.522;2022-12-24T11:00:31;10.98;;;4.95;;
63286;SDS011;49410;55.708;37.522;2022-12-24T11:05:36;10.70;;;5.25;;
63286;SDS011;49410;55.708;37.522;2022-12-24T11:10:53;12.38;;;5.50;;
63286;SDS011;49410;55.708;37.522;2022-12-24T11:16:15;12.90;;;6.50;;
63286;SDS011;49410;55.708;37.522;2022-12-24T11:18:51;14.13;;;5.95;;
63286;SDS011;49410;55.708;37.522;2022-12-24T11:21:20;13.15;;;6.40;;
63286;SDS011;49410;55.708;37.522;2022-12-24T11:24:37;11.57;;;5.10;;
63286;SDS011;49410;55.708;37.522;2022-12-24T11:26:53;12.52;;;5.93;;
63286;SDS011;49410;55.708;37.522;2022-12-24T11:29:39;11.98;;;4.90;;
63286;SDS011;49410;55.708;37.522;2022-12-24T11:32:38;15.10;;;6.60;;
63286;SDS011;49410;55.708;37.522;2022-12-24T11:34:56;12.10;;;6.38;;
63286;SDS011;49410;55.708;37.522;2022-12-24T11:37:31;11.52;;;5.85;;
63286;SDS011;49410;55.708;37.522;2022-12-24T11:39:57;13.85;;;5.75;;
63286;SDS011;49410;55.708;37.522;2022-12-24T11:44:59;14.50;;;5.35;;
63286;SDS011;49410;55.708;37.522;2022-12-24T11:52:48;10.32;;;5.60;;
63286;SDS011;49410;55.708;37.522;2022-12-24T11:59:08;10.27;;;5.18;;
63286;SDS011;49410;55.708;37.522;2022-12-24T12:01:20;10.68;;;4.88;;
63286;SDS011;49410;55.708;37.522;2022-12-24T12:03:54;10.95;;;5.57;;
63286;SDS011;49410;55.708;37.522;2022-12-24T12:09:02;12.30;;;5.30;;
63286;SDS011;49410;55.708;37.522;2022-12-24T12:11:31;10.10;;;4.68;;
63286;SDS011;49410;55.708;37.522;2022-12-24T12:13:59;10.32;;;4.10;;
63286;SDS011;49410;55.708;37.522;2022-12-24T12:16:28;12.32;;;5.25;;
63286;SDS011;49410;55.708;37.522;2022-12-24T12:19:32;10.13;;;5.03;;
63286;SDS011;49410;55.708;37.522;2022-12-24T12:27:27;10.13;;;4.53;;
63286;SDS011;49410;55.708;37.522;2022-12-24T12:30:24;11.27;;;4.72;;
63286;SDS011;49410;55.708;37.522;2022-12-24T12:35:40;10.18;;;4.93;;
63286;SDS011;49410;55.708;37.522;2022-12-24T12:38:24;10.35;;;4.57;;
63286;SDS011;49410;55.708;37.522;2022-12-24T12:58:16;10.82;;;5.20;;
63286;SDS011;49410;55.708;37.522;2022-12-24T13:00:48;10.00;;;4.32;;
63286;SDS011;49410;55.708;37.522;2022-12-24T13:08:47;9.27;;;4.57;;
63286;SDS011;49410;55.708;37.522;2022-12-24T13:14:06;9.98;;;5.30;;
63286;SDS011;49410;55.708;37.522;2022-12-24T13:16:53;10.38;;;4.88;;
63286;SDS011;49410;55.708;37.522;2022-12-24T13:20:24;12.45;;;4.00;;
63286;SDS011;49410;55.708;37.522;2022-12-24T13:22:49;9.60;;;4.45;;
63286;SDS011;49410;55.708;37.522;2022-12-24T13:25:25;15.50;;;4.72;;
63286;SDS011;49410;55.708;37.522;2022-12-24T13:27:55;10.93;;;4.43;;
63286;SDS011;49410;55.708;37.522;2022-12-24T13:30:32;9.55;;;4.32;;
63286;SDS011;49410;55.708;37.522;2022-12-24T13:33:00;8.55;;;4.30;;
63286;SDS011;49410;55.708;37.522;2022-12-24T13:35:28;12.02;;;4.32;;
63286;SDS011;49410;55.708;37.522;2022-12-24T13:38:22;10.18;;;4.18;;
63286;SDS011;49410;55.708;37.522;2022-12-24T13:40:54;11.30;;;5.38;;
63286;SDS011;49410;55.708;37.522;2022-12-24T13:43:20;12.60;;;5.22;;
63286;SDS011;49410;55.708;37.522;2022-12-24T13:45:47;10.80;;;4.63;;
63286;SDS011;49410;55.708;37.522;2022-12-24T13:54:21;8.90;;;5.25;;
63286;SDS011;49410;55.708;37.522;2022-12-24T13:59:36;10.32;;;4.90;;
63286;SDS011;49410;55.708;37.522;2022-12-24T14:02:03;11.02;;;4.80;;
63286;SDS011;49410;55.708;37.522;2022-12-24T14:04:31;12.65;;;4.57;;
63286;SDS011;49410;55.708;37.522;2022-12-24T14:07:01;12.82;;;4.93;;
63286;SDS011;49410;55.708;37.522;2022-12-24T14:09:29;9.68;;;4.72;;
63286;SDS011;49410;55.708;37.522;2022-12-24T14:17:23;12.35;;;5.45;;
63286;SDS011;49410;55.708;37.522;2022-12-24T14:19:54;12.13;;;5.32;;
63286;SDS011;49410;55.708;37.522;2022-12-24T14:24:52;11.85;;;4.10;;
63286;SDS011;49410;55.708;37.522;2022-12-24T14:30:12;10.10;;;4.60;;
63286;SDS011;49410;55.708;37.522;2022-12-24T14:32:42;11.55;;;5.03;;
63286;SDS011;49410;55.708;37.522;2022-12-24T14:43:29;11.13;;;5.53;;
63286;SDS011;49410;55.708;37.522;2022-12-24T14:48:37;10.13;;;4.45;;
63286;SDS011;49410;55.708;37.522;2022-12-24T14:54:01;9.18;;;4.07;;
63286;SDS011;49410;55.708;37.522;2022-12-24T14:56:33;9.32;;;5.13;;
63286;SDS011;49410;55.708;37.522;2022-12-24T14:58:58;12.52;;;5.63;;
63286;SDS011;49410;55.708;37.522;2022-12-24T15:01:31;10.10;;;5.28;;
63286;SDS011;49410;55.708;37.522;2022-12-24T15:04:01;12.55;;;5.28;;
63286;SDS011;49410;55.708;37.522;2022-12-24T15:06:28;10.13;;;4.43;;
63286;SDS011;49410;55.708;37.522;2022-12-24T15:08:57;12.48;;;5.88;;
63286;SDS011;49410;55.708;37.522;2022-12-24T15:11:23;14.88;;;5.53;;
63286;SDS011;49410;55.708;37.522;2022-12-24T15:13:49;12.48;;;6.22;;
63286;SDS011;49410;55.708;37.522;2022-12-24T15:16:21;13.73;;;6.35;;
63286;SDS011;49410;55.708;37.522;2022-12-24T15:18:50;12.57;;;6.25;;
63286;SDS011;49410;55.708;37.522;2022-12-24T15:21:27;12.77;;;5.68;;
63286;SDS011;49410;55.708;37.522;2022-12-24T15:23:55;13.57;;;6.25;;
63286;SDS011;49410;55.708;37.522;2022-12-24T15:28:49;11.93;;;5.43;;
63286;SDS011;49410;55.708;37.522;2022-12-24T15:31:19;11.48;;;5.90;;
63286;SDS011;49410;55.708;37.522;2022-12-24T15:33:47;11.60;;;4.82;;
63286;SDS011;49410;55.708;37.522;2022-12-24T15:36:14;12.27;;;4.40;;
63286;SDS011;49410;55.708;37.522;2022-12-24T15:38:42;12.93;;;5.38;;
63286;SDS011;49410;55.708;37.522;2022-12-24T15:41:29;10.57;;;4.75;;
63286;SDS011;49410;55.708;37.522;2022-12-24T15:44:02;8.35;;;4.68;;
63286;SDS011;49410;55.708;37.522;2022-12-24T15:46:28;9.57;;;4.97;;
63286;SDS011;49410;55.708;37.522;2022-12-24T15:48:55;10.00;;;4.32;;
63286;SDS011;49410;55.708;37.522;2022-12-24T15:51:24;10.88;;;4.72;;
63286;SDS011;49410;55.708;37.522;2022-12-24T15:53:55;10.10;;;5.18;;
63286;SDS011;49410;55.708;37.522;2022-12-24T15:56:33;12.45;;;6.18;;
63286;SDS011;49410;55.708;37.522;2022-12-24T15:59:36;11.43;;;5.45;;
63286;SDS011;49410;55.708;37.522;2022-12-24T16:10:43;10.57;;;4.40;;
63286;SDS011;49410;55.708;37.522;2022-12-24T16:15:57;10.18;;;5.43;;
63286;SDS011;49410;55.708;37.522;2022-12-24T16:18:27;12.20;;;5.53;;
63286;SDS011;49410;55.708;37.522;2022-12-24T16:21:29;10.55;;;5.88;;
63286;SDS011;49410;55.708;37.522;2022-12-24T16:24:02;10.25;;;5.00;;
63286;SDS011;49410;55.708;37.522;2022-12-24T16:26:37;10.68;;;4.88;;
63286;SDS011;49410;55.708;37.522;2022-12-24T16:29:04;14.00;;;5.25;;
63286;SDS011;49410;55.708;37.522;2022-12-24T16:31:34;9.85;;;4.40;;
63286;SDS011;49410;55.708;37.522;2022-12-24T16:34:01;10.52;;;5.25;;
63286;SDS011;49410;55.708;37.522;2022-12-24T16:36:28;12.73;;;5.97;;
63286;SDS011;49410;55.708;37.522;2022-12-24T16:38:55;13.98;;;5.72;;
63286;SDS011;49410;55.708;37.522;2022-12-24T16:41:40;10.60;;;4.43;;
63286;SDS011;49410;55.708;37.522;2022-12-24T16:44:24;11.25;;;4.93;;
63286;SDS011;49410;55.708;37.522;2022-12-24T16:46:51;12.85;;;4.78;;
63286;SDS011;49410;55.708;37.522;2022-12-24T16:49:18;11.98;;;5.00;;
63286;SDS011;49410;55.708;37.522;2022-12-24T16:51:45;11.05;;;5.88;;
63286;SDS011;49410;55.708;37.522;2022-12-24T16:54:11;11.45;;;5.43;;
63286;SDS011;49410;55.708;37.522;2022-12-24T16:56:39;12.68;;;5.68;;
63286;SDS011;49410;55.708;37.522;2022-12-24T16:59:05;13.43;;;4.82;;
63286;SDS011;49410;55.708;37.522;2022-12-24T17:01:30;11.93;;;4.70;;